Akebono — JG5644 — position and weather

sailwx.info

Track history (hours):
 
Tides and Currents Weather Stations Pressure Air Temp Water Temp Dewpoint Dewpoint Depression Visibility Wind Speed Wind Dir Waves Ship Positions

Akebono

Last reported at 2014-Dec-20 07:14 UTC. Time now 2014-Dec-21 09:55 UTC.
Position N 35°27' E 139°39'.

Length 33 m; draft 4.4 m.

Type: Tug. MMSI: 431000233.

Date/timePositionNaut miles runAvg speedWind from/ knotsBaromVisibWave heightAir tempDewpointWater temp
2014-Dec-20 07:14N 35°27' E 139°39'2 3.3
2014-Dec-20 06:33N 35°27' E 139°42'0 0.0
2014-Dec-20 05:33N 35°27' E 139°42'10 9.9
2014-Dec-20 04:32N 35°29' E 139°54'2 1.1
2014-Dec-20 02:12N 35°29' E 139°57'3 3.6
2014-Dec-20 01:24N 35°29' E 139°54'1011.7
2014-Dec-20 00:34N 35°26' E 139°42'2 2.4
2014-Dec-19 23:33N 35°27' E 139°39'0 0.0
2014-Dec-19 22:34N 35°27' E 139°39'0 0.0
2014-Dec-19 21:34N 35°27' E 139°39'0 0.0
2014-Dec-19 20:34N 35°27' E 139°39'0 0.0
2014-Dec-19 07:10N 35°27' E 139°39'0 0.0
2014-Dec-19 06:33N 35°27' E 139°39'0 0.0
2014-Dec-19 05:33N 35°27' E 139°39'0 0.1
2014-Dec-19 04:33N 35°27' E 139°39'5 4.3
2014-Dec-19 03:29N 35°29' E 139°44'2 1.7
2014-Dec-19 02:33N 35°28' E 139°46'1 0.7
2014-Dec-19 01:33N 35°28' E 139°45'0 0.4
2014-Dec-19 00:33N 35°29' E 139°46'3 2.9
2014-Dec-18 23:33N 35°27' E 139°43'1 1.3
2014-Dec-18 22:33N 35°26' E 139°44'4 3.6
2014-Dec-18 21:33N 35°27' E 139°39'0 0.0
2014-Dec-18 07:09N 35°27' E 139°39'0 0.0
2014-Dec-18 06:33N 35°27' E 139°39'0 0.0
2014-Dec-18 05:33N 35°27' E 139°39'0 0.0
2014-Dec-18 04:33N 35°27' E 139°39'0 0.0
2014-Dec-18 03:33N 35°27' E 139°39'3 3.0
2014-Dec-18 02:33N 35°27' E 139°43'1 0.5
2014-Dec-18 00:29N 35°27' E 139°44'1 1.3
2014-Dec-17 23:33N 35°26' E 139°43'2 1.9
2014-Dec-17 22:33N 35°27' E 139°41'3 2.8
2014-Dec-17 21:33N 35°25' E 139°43'4 3.6
2014-Dec-17 20:33N 35°27' E 139°39'0 0.0
2014-Dec-17 19:33N 35°27' E 139°39'0 0.0
2014-Dec-17 10:07N 35°27' E 139°39'2 2.9
2014-Dec-17 09:33N 35°27' E 139°41'1 0.7
2014-Dec-17 08:33N 35°27' E 139°40'2 1.6
2014-Dec-17 07:33N 35°28' E 139°42'0 0.0
2014-Dec-17 06:33N 35°28' E 139°42'2 1.8
2014-Dec-17 05:23N 35°29' E 139°44'1 1.0
2014-Dec-17 04:33N 35°28' E 139°45'2 2.0
2014-Dec-17 03:33N 35°28' E 139°48'7 7.0
2014-Dec-17 02:34N 35°27' E 139°39'0 0.1
2014-Dec-17 01:33N 35°27' E 139°39'0 0.0
2014-Dec-17 00:33N 35°27' E 139°39'0 0.0
2014-Dec-16 23:33N 35°27' E 139°39'0 0.0
2014-Dec-16 22:33N 35°27' E 139°39'0 0.0
2014-Dec-15 22:25N 35°27' E 139°39'1 1.5
2014-Dec-15 21:33N 35°27' E 139°41'1 1.2
2014-Dec-15 20:33N 35°26' E 139°42'0 0.0
2014-Dec-15 19:33N 35°26' E 139°42'0 0.0
2014-Dec-15 18:33N 35°26' E 139°42'1 0.7
2014-Dec-15 17:33N 35°26' E 139°41'1 0.7
2014-Dec-15 16:33N 35°26' E 139°42'0 0.0
2014-Dec-15 15:33N 35°26' E 139°42'0 0.0
2014-Dec-15 14:33N 35°26' E 139°42'2 2.0
2014-Dec-15 13:33N 35°28' E 139°40'0 0.0
2014-Dec-15 12:33N 35°28' E 139°40'0 0.0
2014-Dec-15 11:33N 35°28' E 139°40'0 0.0
2014-Dec-15 10:33N 35°28' E 139°40'1 1.3
2014-Dec-15 09:34N 35°26' E 139°41'1 1.2
2014-Dec-15 08:33N 35°26' E 139°42'3 2.6
2014-Dec-15 07:33N 35°27' E 139°40'0 0.2
2014-Dec-15 06:34N 35°27' E 139°39'0 0.0
2014-Dec-15 05:34N 35°27' E 139°39'0 0.0
2014-Dec-15 04:34N 35°27' E 139°39'0 0.0
2014-Dec-15 03:33N 35°27' E 139°39'0 0.0
2014-Dec-15 02:33N 35°27' E 139°39'0 0.0
2014-Dec-15 01:33N 35°27' E 139°39'0 0.0
2014-Dec-15 00:33N 35°27' E 139°39'2 2.2
2014-Dec-14 23:34N 35°27' E 139°42'5 5.2
2014-Dec-14 22:33N 35°31' E 139°46'2 2.4
2014-Dec-14 21:34N 35°30' E 139°44'4 4.4
2014-Dec-14 20:33N 35°27' E 139°39'0 0.0
2014-Dec-13 07:10N 35°27' E 139°39'0 0.0
2014-Dec-13 06:33N 35°27' E 139°39'3 2.9
2014-Dec-13 05:33N 35°29' E 139°42'4 3.8
2014-Dec-13 04:33N 35°31' E 139°46'3 3.3
2014-Dec-13 03:34N 35°28' E 139°44'4 3.8
2014-Dec-13 02:34N 35°27' E 139°39'0 0.0
2014-Dec-13 01:34N 35°27' E 139°39'2 2.0
2014-Dec-13 00:34N 35°27' E 139°42'1 0.8
2014-Dec-12 23:34N 35°26' E 139°42'6 5.6
2014-Dec-12 22:33N 35°31' E 139°45'4 4.1
2014-Dec-12 21:33N 35°27' E 139°43'3 3.0
2014-Dec-12 20:34N 35°27' E 139°39'0 0.0
2014-Dec-12 08:33N 35°27' E 139°39'0 0.0
2014-Dec-12 07:33N 35°27' E 139°39'0 0.0
2014-Dec-12 06:33N 35°27' E 139°39'1 0.7
2014-Dec-12 05:33N 35°27' E 139°40'2 1.7
2014-Dec-12 04:34N 35°29' E 139°39'3 3.4
2014-Dec-12 03:33N 35°26' E 139°42'0 0.0
2014-Dec-12 02:33N 35°26' E 139°42'0 0.0
2014-Dec-12 01:33N 35°26' E 139°42'0 0.0
2014-Dec-12 00:33N 35°26' E 139°42'1 0.9
2014-Dec-11 23:34N 35°27' E 139°41'3 3.1
2014-Dec-11 22:33N 35°27' E 139°45'4 4.5
2014-Dec-11 21:34N 35°27' E 139°39'0 0.0
2014-Dec-11 07:15N 35°27' E 139°39'0 0.0
2014-Dec-11 06:33N 35°27' E 139°39'0 0.0
2014-Dec-11 05:34N 35°27' E 139°39'0 0.0
2014-Dec-11 04:33N 35°27' E 139°39'0 0.0
2014-Dec-11 03:33N 35°27' E 139°39'0 0.0
2014-Dec-11 02:33N 35°27' E 139°39'0 0.0
2014-Dec-11 01:33N 35°27' E 139°39'0 0.0
2014-Dec-11 00:34N 35°27' E 139°39'1 0.1
2014-Dec-10 08:12N 35°27' E 139°41'0 0.4
2014-Dec-10 07:33N 35°27' E 139°41'  
Track history (hours):
 
Tides and Currents Weather Stations Pressure Air Temp Water Temp Dewpoint Dewpoint Depression Visibility Wind Speed Wind Dir Waves Ship Positions

Akebono

Last reported at 2014-Dec-20 07:14 UTC. Time now 2014-Dec-21 09:55 UTC.
Position N 35°27' E 139°39'.

Length 33 m; draft 4.4 m.

Type: Tug. MMSI: 431000233.

Date/timePositionNaut miles runAvg speedWind from/ knotsBaromVisibWave heightAir tempDewpointWater temp
2014-Dec-20 07:14N 35°27' E 139°39'2 3.3
2014-Dec-20 06:33N 35°27' E 139°42'0 0.0
2014-Dec-20 05:33N 35°27' E 139°42'10 9.9
2014-Dec-20 04:32N 35°29' E 139°54'2 1.1
2014-Dec-20 02:12N 35°29' E 139°57'3 3.6
2014-Dec-20 01:24N 35°29' E 139°54'1011.7
2014-Dec-20 00:34N 35°26' E 139°42'2 2.4
2014-Dec-19 23:33N 35°27' E 139°39'0 0.0
2014-Dec-19 22:34N 35°27' E 139°39'0 0.0
2014-Dec-19 21:34N 35°27' E 139°39'0 0.0
2014-Dec-19 20:34N 35°27' E 139°39'0 0.0
2014-Dec-19 07:10N 35°27' E 139°39'0 0.0
2014-Dec-19 06:33N 35°27' E 139°39'0 0.0
2014-Dec-19 05:33N 35°27' E 139°39'0 0.1
2014-Dec-19 04:33N 35°27' E 139°39'5 4.3
2014-Dec-19 03:29N 35°29' E 139°44'2 1.7
2014-Dec-19 02:33N 35°28' E 139°46'1 0.7
2014-Dec-19 01:33N 35°28' E 139°45'0 0.4
2014-Dec-19 00:33N 35°29' E 139°46'3 2.9
2014-Dec-18 23:33N 35°27' E 139°43'1 1.3
2014-Dec-18 22:33N 35°26' E 139°44'4 3.6
2014-Dec-18 21:33N 35°27' E 139°39'0 0.0
2014-Dec-18 07:09N 35°27' E 139°39'0 0.0
2014-Dec-18 06:33N 35°27' E 139°39'0 0.0
2014-Dec-18 05:33N 35°27' E 139°39'0 0.0
2014-Dec-18 04:33N 35°27' E 139°39'0 0.0
2014-Dec-18 03:33N 35°27' E 139°39'3 3.0
2014-Dec-18 02:33N 35°27' E 139°43'1 0.5
2014-Dec-18 00:29N 35°27' E 139°44'1 1.3
2014-Dec-17 23:33N 35°26' E 139°43'2 1.9
2014-Dec-17 22:33N 35°27' E 139°41'3 2.8
2014-Dec-17 21:33N 35°25' E 139°43'4 3.6
2014-Dec-17 20:33N 35°27' E 139°39'0 0.0
2014-Dec-17 19:33N 35°27' E 139°39'0 0.0
2014-Dec-17 10:07N 35°27' E 139°39'2 2.9
2014-Dec-17 09:33N 35°27' E 139°41'1 0.7
2014-Dec-17 08:33N 35°27' E 139°40'2 1.6
2014-Dec-17 07:33N 35°28' E 139°42'0 0.0
2014-Dec-17 06:33N 35°28' E 139°42'2 1.8
2014-Dec-17 05:23N 35°29' E 139°44'1 1.0
2014-Dec-17 04:33N 35°28' E 139°45'2 2.0
2014-Dec-17 03:33N 35°28' E 139°48'7 7.0
2014-Dec-17 02:34N 35°27' E 139°39'0 0.1
2014-Dec-17 01:33N 35°27' E 139°39'0 0.0
2014-Dec-17 00:33N 35°27' E 139°39'0 0.0
2014-Dec-16 23:33N 35°27' E 139°39'0 0.0
2014-Dec-16 22:33N 35°27' E 139°39'0 0.0
2014-Dec-15 22:25N 35°27' E 139°39'1 1.5
2014-Dec-15 21:33N 35°27' E 139°41'1 1.2
2014-Dec-15 20:33N 35°26' E 139°42'0 0.0
2014-Dec-15 19:33N 35°26' E 139°42'0 0.0
2014-Dec-15 18:33N 35°26' E 139°42'1 0.7
2014-Dec-15 17:33N 35°26' E 139°41'1 0.7
2014-Dec-15 16:33N 35°26' E 139°42'0 0.0
2014-Dec-15 15:33N 35°26' E 139°42'0 0.0
2014-Dec-15 14:33N 35°26' E 139°42'2 2.0
2014-Dec-15 13:33N 35°28' E 139°40'0 0.0
2014-Dec-15 12:33N 35°28' E 139°40'0 0.0
2014-Dec-15 11:33N 35°28' E 139°40'0 0.0
2014-Dec-15 10:33N 35°28' E 139°40'1 1.3
2014-Dec-15 09:34N 35°26' E 139°41'1 1.2
2014-Dec-15 08:33N 35°26' E 139°42'3 2.6
2014-Dec-15 07:33N 35°27' E 139°40'0 0.2
2014-Dec-15 06:34N 35°27' E 139°39'0 0.0
2014-Dec-15 05:34N 35°27' E 139°39'0 0.0
2014-Dec-15 04:34N 35°27' E 139°39'0 0.0
2014-Dec-15 03:33N 35°27' E 139°39'0 0.0
2014-Dec-15 02:33N 35°27' E 139°39'0 0.0
2014-Dec-15 01:33N 35°27' E 139°39'0 0.0
2014-Dec-15 00:33N 35°27' E 139°39'2 2.2
2014-Dec-14 23:34N 35°27' E 139°42'5 5.2
2014-Dec-14 22:33N 35°31' E 139°46'2 2.4
2014-Dec-14 21:34N 35°30' E 139°44'4 4.4
2014-Dec-14 20:33N 35°27' E 139°39'0 0.0
2014-Dec-13 07:10N 35°27' E 139°39'0 0.0
2014-Dec-13 06:33N 35°27' E 139°39'3 2.9
2014-Dec-13 05:33N 35°29' E 139°42'4 3.8
2014-Dec-13 04:33N 35°31' E 139°46'3 3.3
2014-Dec-13 03:34N 35°28' E 139°44'4 3.8
2014-Dec-13 02:34N 35°27' E 139°39'0 0.0
2014-Dec-13 01:34N 35°27' E 139°39'2 2.0
2014-Dec-13 00:34N 35°27' E 139°42'1 0.8
2014-Dec-12 23:34N 35°26' E 139°42'6 5.6
2014-Dec-12 22:33N 35°31' E 139°45'4 4.1
2014-Dec-12 21:33N 35°27' E 139°43'3 3.0
2014-Dec-12 20:34N 35°27' E 139°39'0 0.0
2014-Dec-12 08:33N 35°27' E 139°39'0 0.0
2014-Dec-12 07:33N 35°27' E 139°39'0 0.0
2014-Dec-12 06:33N 35°27' E 139°39'1 0.7
2014-Dec-12 05:33N 35°27' E 139°40'2 1.7
2014-Dec-12 04:34N 35°29' E 139°39'3 3.4
2014-Dec-12 03:33N 35°26' E 139°42'0 0.0
2014-Dec-12 02:33N 35°26' E 139°42'0 0.0
2014-Dec-12 01:33N 35°26' E 139°42'0 0.0
2014-Dec-12 00:33N 35°26' E 139°42'1 0.9
2014-Dec-11 23:34N 35°27' E 139°41'3 3.1
2014-Dec-11 22:33N 35°27' E 139°45'4 4.5
2014-Dec-11 21:34N 35°27' E 139°39'0 0.0
2014-Dec-11 07:15N 35°27' E 139°39'0 0.0
2014-Dec-11 06:33N 35°27' E 139°39'0 0.0
2014-Dec-11 05:34N 35°27' E 139°39'0 0.0
2014-Dec-11 04:33N 35°27' E 139°39'0 0.0
2014-Dec-11 03:33N 35°27' E 139°39'0 0.0
2014-Dec-11 02:33N 35°27' E 139°39'0 0.0
2014-Dec-11 01:33N 35°27' E 139°39'0 0.0
2014-Dec-11 00:34N 35°27' E 139°39'1 0.1
2014-Dec-10 08:12N 35°27' E 139°41'0 0.4
2014-Dec-10 07:33N 35°27' E 139°41'  

Dump ship's entire track history